Hauptseite
METAR-TAF:

METAR-TAF

Flughäfen :

Bukarest, Rumänien

Flughafen Bukarest Henri Coandă

Breite: 44-33N, Länge: 026-06E, Höhe: 95 m

Beobachtung

Neuester Wetterbericht von vor 35 Minuten, um 00:00 UTC
Wind 4 kt aus Südwest, variierte zwischen Süd und West/Südwest
Temperatur 13°C
Luftfeuchtigkeit 94%
Luftdruck 1015 hPa
Sichtweite 10 km oder mehr
keine Wolken unter 1500 m und keine Kumulonimbus oder Gewitterwolken

METAR: LROP 250000Z 23004KT 170V250 CAVOK 13/12 Q1015 NOSIG

Zeit: 03:35 (00:35 UTC)

Prognose

Neuester Wetterbericht von vor 1 Stunde und 35 Minuten, um 23:00 UTC
Gültige Prognose vom 25 um 00 UTC bis 25 um 24 UTC
Wind 4 kt aus unterschiedlichen Richtungen
Sichtweite 10 km oder mehr
keine Wolken unter 1500 m und keine Kumulonimbus oder Gewitterwolken

TAF: LROP 242300Z 2500/2524 VRB04KT CAVOK

Wetterbeobachtungen und Prognosen von mehr als 4000 Flughäfen (METAR und TAF Bericht).

Die verfügbaren Stationen werden durch gelbe und rote Markierungen auf der Karte dargestellt.

Führen Sie die Maus auf sie, um den Namen der Station zu sehen.

Darauf klicken, um die Beobachtung von Wetterbeobachtungen und Prognosen zu sehen.

Um die Karte zu ändern : klicken Sie auf den grünen Tasten mit einem schwarzen Kreuz Zum Vergrößern, auf den grünen Button mit einem Gedankenstrich zu verkleinern, oder auf die grünen Pfeile für benachbarte Karten.


METAR-TAF: